Have a Safe July 4th! 

Flight Track Log - Related Links

Times and Time Zones

All times are in EDT time to prevent confusion due to time zone crossing. See the TAM3900 flight status page for this flight to view local times or setup timezone preferences in your user account.

Time Position Orientation Groundspeed Altitude Reporting Facility
EDT Latitude Longitude Course Direction KTS MPH feet Rate Location/Type
Mon 05:21:00 AM -23.5312 -46.1650 78° East  Level Estimated
Mon 05:22:00 AM -23.5175 -46.0950 78° East  Level Estimated
Mon 05:23:00 AM -23.5037 -46.0250 78° East  Level Estimated
Mon 05:24:00 AM -23.4899 -45.9550 78° East  Level Estimated
Mon 05:25:00 AM -23.4760 -45.8851 78° East  Level Estimated
Mon 05:26:00 AM -23.4621 -45.8152 78° East  Level Estimated
Mon 05:27:00 AM -23.4482 -45.7452 78° East  Level Estimated
Mon 05:28:00 AM -23.4343 -45.6753 78° East  Level Estimated
Mon 05:29:00 AM -23.4203 -45.6054 78° East  Level Estimated
Mon 05:30:00 AM -23.4063 -45.5355 78° East  Level Estimated
Mon 05:31:00 AM -23.3803 -45.4062 78° East  Level Estimated
Mon 05:32:00 AM -23.3541 -45.2769 78° East  Level Estimated
Mon 05:33:00 AM -23.3279 -45.1476 78° East  Level Estimated
Mon 05:34:00 AM -23.3015 -45.0184 78° East  Level Estimated
Mon 05:35:00 AM -23.2751 -44.8892 77° East  Level Estimated
Mon 05:36:00 AM -23.2485 -44.7601 77° East  Level Estimated
Mon 05:37:00 AM -23.2219 -44.6311 77° East  Level Estimated
Mon 05:38:00 AM -23.1951 -44.5020 77° East  Level Estimated
Mon 05:39:00 AM -23.1682 -44.3731 77° East  Level Estimated
Mon 05:40:00 AM -23.1413 -44.2442 77° East  Level Estimated
Mon 05:41:00 AM -23.1142 -44.1153 77° East  Level Estimated
Mon 05:42:00 AM -23.0870 -43.9865 77° East  Level Estimated
Mon 05:43:00 AM -23.0597 -43.8578 77° East  Level Estimated
Mon 05:44:00 AM -23.0323 -43.7291 77° East  Level Estimated
Mon 05:45:00 AM -23.0048 -43.6004 77° East  Level Estimated
Mon 05:46:00 AM -22.9772 -43.4719 77° East  Level Estimated
Mon 05:47:00 AM -22.9495 -43.3433 77° East  Level Estimated
Mon 05:48:00 AM -22.9217 -43.2148 77° East  Level Estimated
Mon 05:49:00 AM -22.9105 -43.1631 77° East  Level Estimated
Mon 05:50:00 AM -22.9105 -43.1631 250° West  Level Estimated
Mon 05:51:00 AM -22.9105 -43.1631 250° West  Level Estimated
Mon 05:52:00 AM -22.9105 -43.1631 250° West  Level Estimated
Mon 05:53:00 AM -22.9105 -43.1631 250° West  Level Estimated
Mon 05:54:00 AM -22.9105 -43.1631 250° West  Level Estimated
Mon 05:55:00 AM -22.9105 -43.1631 250° West  Level Estimated
Mon 05:56:00 AM -22.9105 -43.1631 250° West  Level Estimated
Mon 05:57:00 AM -22.9105 -43.1631 250° West  Level Estimated

Login

Don't have an account? Register now (free) for customized features, flight alerts, and more!